Time;durP1;ratioP1;P1;durP2;ratioP2;P2;SDS_P1;SDS_P2;PMS_P1;PMS_P2;Temp;Humidity;BMP_temperature;BMP_pressure;BME280_temperature;BME280_humidity;BME280_pressure;Samples;Min_cycle;Max_cycle;Signal;HPM_P1;HPM_P2
2022/11/27 04:02:30;;;;;;;;;;;14.70;51.90;;;;;;4996572;23;45230;-57
2022/11/27 04:04:56;;;;;;;;;;;14.70;51.90;;;;;;4915693;28;44716;-58
2022/11/27 04:07:21;;;;;;;;;;;14.70;51.90;;;;;;4916249;28;45494;-61
2022/11/27 04:09:47;;;;;;;;;;;14.70;51.90;;;;;;4920770;28;45305;-60
2022/11/27 04:12:12;;;;;;;;;;;14.70;51.90;;;;;;4918703;28;46891;-58
2022/11/27 04:14:38;;;;;;;;;;;14.70;51.90;;;;;;4918824;28;44804;-62
2022/11/27 04:17:03;;;;;;;;;;;14.70;51.90;;;;;;4916837;28;45413;-61
2022/11/27 04:19:28;;;;;;;;;;;14.70;51.90;;;;;;4919733;28;45076;-59
2022/11/27 04:21:54;;;;;;;;;;;14.70;51.90;;;;;;4916857;28;46144;-56
2022/11/27 04:24:19;;;;;;;;;;;14.70;51.90;;;;;;4920403;28;45429;-60
2022/11/27 04:26:45;;;;;;;;;;;14.70;51.90;;;;;;4918380;28;45279;-60
2022/11/27 04:29:10;;;;;;;;;;;14.70;52.00;;;;;;4916772;28;45940;-60
2022/11/27 04:31:36;;;;;;;;;;;14.70;52.00;;;;;;4911528;28;45222;-56
2022/11/27 04:34:01;;;;;;;;;;;14.70;51.90;;;;;;4922516;28;45008;-63
2022/11/27 04:36:27;;;;;;;;;;;14.70;52.00;;;;;;4918145;28;44741;-58
2022/11/27 04:38:52;;;;;;;;;;;14.70;51.90;;;;;;4921571;28;45316;-59
2022/11/27 04:41:18;;;;;;;;;;;14.70;51.90;;;;;;4905887;28;45365;-58
2022/11/27 04:43:43;;;;;;;;;;;14.70;52.00;;;;;;4919928;28;46820;-59
2022/11/27 04:46:09;;;;;;;;;;;14.70;52.10;;;;;;4915625;28;44716;-57
2022/11/27 04:48:34;;;;;;;;;;;14.70;52.00;;;;;;4920856;28;45270;-56
2022/11/27 04:50:59;;;;;;;;;;;14.70;52.00;;;;;;4918363;28;46019;-58
2022/11/27 04:53:25;;;;;;;;;;;14.60;52.00;;;;;;4918493;28;45326;-55
2022/11/27 04:55:51;;;;;;;;;;;14.60;52.00;;;;;;4920042;28;45236;-59
2022/11/27 04:58:16;;;;;;;;;;;14.70;52.00;;;;;;4919186;28;45034;-59
2022/11/27 05:00:42;;;;;;;;;;;14.70;52.00;;;;;;4917815;28;45918;-59
2022/11/27 05:03:07;;;;;;;;;;;14.60;52.00;;;;;;4918958;28;45295;-57
2022/11/27 05:05:33;;;;;;;;;;;14.60;52.00;;;;;;4917086;28;44893;-59
2022/11/27 05:07:58;;;;;;;;;;;14.70;52.00;;;;;;4904630;28;45242;-60
2022/11/27 05:10:24;;;;;;;;;;;14.70;52.00;;;;;;4916477;28;46139;-57
2022/11/27 05:12:49;;;;;;;;;;;14.70;52.00;;;;;;4919802;28;45164;-59
2022/11/27 05:15:15;;;;;;;;;;;14.60;52.00;;;;;;4917616;28;44667;-66
2022/11/27 05:17:40;;;;;;;;;;;14.70;52.00;;;;;;4921208;28;45181;-58
2022/11/27 05:20:06;;;;;;;;;;;14.70;52.00;;;;;;4919677;28;46454;-60
2022/11/27 05:22:35;;;;;;;;;;;14.70;52.00;;;;;;4913577;28;45192;-59
2022/11/27 05:25:00;;;;;;;;;;;14.60;52.00;;;;;;4912987;28;45298;-61
2022/11/27 05:27:26;;;;;;;1.20;1.10;;;14.60;52.00;;;;;;4918723;28;45618;-61
2022/11/27 05:29:51;;;;;;;1.30;1.20;;;14.60;51.80;;;;;;4915569;28;46087;-64
2022/11/27 05:32:17;;;;;;;1.63;1.30;;;14.60;51.80;;;;;;4919082;28;45183;-62
2022/11/27 05:34:42;;;;;;;1.20;1.10;;;14.70;51.90;;;;;;4915547;28;45285;-60
2022/11/27 05:37:08;;;;;;;;;;;14.70;51.90;;;;;;4919963;28;45032;-57
2022/11/27 05:39:34;;;;;;;1.67;1.27;;;14.60;51.90;;;;;;4921548;28;45968;-59
2022/11/27 05:41:59;;;;;;;1.60;1.42;;;14.70;51.90;;;;;;4920440;28;44701;-61
2022/11/27 05:44:25;;;;;;;1.30;1.20;;;14.70;51.90;;;;;;4921702;28;45352;-62
2022/11/27 05:46:50;;;;;;;1.27;1.10;;;14.70;51.90;;;;;;4919850;28;45560;-62
2022/11/27 05:49:16;;;;;;;1.48;1.38;;;14.70;51.90;;;;;;4922812;28;46216;-59
2022/11/27 05:51:42;;;;;;;1.50;1.40;;;14.60;51.90;;;;;;4916268;28;44679;-69
2022/11/27 05:54:08;;;;;;;1.67;1.38;;;14.60;51.80;;;;;;4918642;28;45312;-62
2022/11/27 05:56:33;;;;;;;2.03;1.60;;;14.60;51.90;;;;;;4902767;28;46288;-61
2022/11/27 05:58:59;;;;;;;2.45;1.55;;;14.70;51.90;;;;;;4920967;28;46091;-61
2022/11/27 06:01:25;;;;;;;2.05;1.40;;;14.70;51.90;;;;;;4917453;28;45562;-57
2022/11/27 06:03:50;;;;;;;1.90;1.40;;;14.60;51.90;;;;;;4920544;28;45490;-58
2022/11/27 06:06:17;;;;;;;1.55;1.30;;;14.60;51.90;;;;;;4918743;28;45488;-63
2022/11/27 06:08:43;;;;;;;1.75;1.40;;;14.60;51.90;;;;;;4904038;28;46956;-60
2022/11/27 06:11:10;;;;;;;1.70;1.45;;;14.60;51.90;;;;;;4921401;28;45097;-62
2022/11/27 06:13:36;;;;;;;1.45;1.27;;;14.60;51.90;;;;;;4896438;28;45174;-61
2022/11/27 06:16:15;;;;;;;1.52;1.40;;;14.60;51.90;;;;;;4917468;28;45376;-61
2022/11/27 06:18:41;;;;;;;1.30;1.17;;;14.70;51.90;;;;;;4921754;28;45062;-57
2022/11/27 06:21:08;;;;;;;1.40;1.02;;;14.60;51.80;;;;;;4918539;28;45141;-63
2022/11/27 06:23:33;;;;;;;1.73;1.30;;;14.60;51.90;;;;;;4908025;28;45436;-57
2022/11/27 06:26:11;;;;;;;2.00;1.40;;;14.60;51.90;;;;;;4918927;28;45284;-62
2022/11/27 06:28:37;;;;;;;1.65;1.33;;;14.60;51.80;;;;;;4918974;28;46136;-59
2022/11/27 06:31:09;;;;;;;1.17;1.08;;;14.60;51.90;;;;;;4920905;28;45622;-64
2022/11/27 06:33:35;;;;;;;1.45;1.20;;;14.60;51.90;;;;;;4897491;28;45929;-58
2022/11/27 06:36:02;;;;;;;1.67;1.45;;;14.60;51.90;;;;;;4916452;28;45400;-61
2022/11/27 06:38:27;;;;;;;1.67;1.30;;;14.60;51.90;;;;;;4914499;28;46340;-62
2022/11/27 06:40:53;;;;;;;1.30;1.20;;;14.50;51.90;;;;;;4916012;28;45695;-58
2022/11/27 06:43:18;;;;;;;2.17;1.45;;;14.60;51.80;;;;;;4920257;28;45237;-62
2022/11/27 06:45:50;;;;;;;2.22;1.35;;;14.60;51.80;;;;;;4918333;28;45571;-61
2022/11/27 06:48:16;;;;;;;1.30;1.20;;;14.60;51.80;;;;;;4889382;28;46504;-62
2022/11/27 06:50:42;;;;;;;1.63;1.52;;;14.60;51.90;;;;;;4915538;28;45231;-62
2022/11/27 06:53:07;;;;;;;1.50;1.30;;;14.60;51.80;;;;;;4918470;28;45197;-63
2022/11/27 06:55:33;;;;;;;1.63;1.50;;;14.60;51.80;;;;;;4918961;28;45103;-59
2022/11/27 06:57:58;;;;;;;1.48;1.30;;;14.60;51.80;;;;;;4914128;28;45996;-61
2022/11/27 07:00:24;;;;;;;1.88;1.27;;;14.60;51.80;;;;;;4918113;28;45343;-63
2022/11/27 07:02:53;;;;;;;1.75;1.35;;;14.60;51.80;;;;;;4916302;28;44714;-61
2022/11/27 07:05:18;;;;;;;1.90;1.33;;;14.60;51.80;;;;;;4919408;28;44721;-63
2022/11/27 07:07:44;;;;;;;1.30;1.20;;;14.60;51.90;;;;;;4898539;28;46727;-62
2022/11/27 07:10:10;;;;;;;1.60;1.40;;;14.50;51.80;;;;;;4918404;28;45278;-62
2022/11/27 07:12:35;;;;;;;1.45;1.35;;;14.60;51.90;;;;;;4913590;28;44621;-61
2022/11/27 07:15:01;;;;;;;2.05;1.60;;;14.60;51.90;;;;;;4914373;28;44978;-59
2022/11/27 07:17:26;;;;;;;1.48;1.38;;;14.60;51.90;;;;;;4913985;28;46313;-60
2022/11/27 07:19:52;;;;;;;1.40;1.20;;;14.50;51.80;;;;;;4914336;28;44841;-63
2022/11/27 07:22:17;;;;;;;1.15;1.02;;;14.60;51.90;;;;;;4913502;28;44946;-63
2022/11/27 07:24:43;;;;;;;1.40;1.23;;;14.60;51.80;;;;;;4918360;28;45250;-60
2022/11/27 07:27:08;;;;;;;1.70;1.45;;;14.50;51.70;;;;;;4914453;28;45649;-63
2022/11/27 07:29:34;;;;;;;2.08;1.42;;;14.50;51.80;;;;;;4916008;28;45219;-60
2022/11/27 07:31:59;;;;;;;2.42;1.52;;;14.60;51.80;;;;;;4918024;28;44780;-59
2022/11/27 07:34:25;;;;;;;1.50;1.35;;;14.50;51.80;;;;;;4913813;28;45550;-61
2022/11/27 07:36:51;;;;;;;1.50;1.35;;;14.50;51.70;;;;;;4910681;28;45865;-64
2022/11/27 07:39:17;;;;;;;1.55;1.20;;;14.50;51.80;;;;;;4911172;28;45507;-60
2022/11/27 07:41:42;;;;;;;1.40;1.20;;;14.50;51.80;;;;;;4912535;28;45432;-63
2022/11/27 07:44:08;;;;;;;1.50;1.30;;;14.50;51.70;;;;;;4917673;28;44694;-58
2022/11/27 07:46:33;;;;;;;2.55;1.35;;;14.50;51.70;;;;;;4914805;28;45119;-60
2022/11/27 07:48:59;;;;;;;1.35;1.02;;;14.50;51.70;;;;;;4898517;28;45304;-62
2022/11/27 07:51:25;;;;;;;1.50;1.20;;;14.60;51.80;;;;;;4911842;28;45538;-66
2022/11/27 07:53:50;;;;;;;1.63;1.23;;;14.50;51.70;;;;;;4917813;28;45595;-62
2022/11/27 07:56:16;;;;;;;1.40;1.30;;;14.50;51.70;;;;;;4917082;28;46853;-62
2022/11/27 07:58:41;;;;;;;1.50;1.40;;;14.50;51.70;;;;;;4916711;28;45540;-59
2022/11/27 08:01:08;;;;;;;1.40;1.25;;;14.50;52.30;;;;;;4914920;28;44645;-60
2022/11/27 08:03:34;;;;;;;2.00;1.45;;;14.50;51.70;;;;;;4917811;28;44823;-56
2022/11/27 08:06:00;;;;;;;1.17;1.00;;;14.50;51.70;;;;;;4888003;28;46368;-64
2022/11/27 08:08:25;;;;;;;1.30;1.20;;;14.50;51.70;;;;;;4915350;28;45437;-60
2022/11/27 08:10:51;;;;;;;1.80;1.35;;;14.50;51.70;;;;;;4915651;28;45245;-61
2022/11/27 08:13:16;;;;;;;1.10;1.00;;;14.50;51.70;;;;;;4918891;28;45249;-58
2022/11/27 08:15:42;;;;;;;1.13;1.02;;;14.50;51.70;;;;;;4918257;28;46011;-58
2022/11/27 08:18:07;;;;;;;1.60;1.38;;;14.50;51.70;;;;;;4900548;28;45282;-58
2022/11/27 08:20:33;;;;;;;2.13;1.48;;;14.50;51.70;;;;;;4915511;28;44722;-62
2022/11/27 08:22:59;;;;;;;1.42;1.33;;;14.50;51.70;;;;;;4916533;28;45610;-59
2022/11/27 08:25:24;;;;;;;1.40;1.20;;;14.50;51.70;;;;;;4917269;28;46142;-58
2022/11/27 08:27:50;;;;;;;1.40;1.08;;;14.50;51.70;;;;;;4898777;28;44686;-62
2022/11/27 08:30:15;;;;;;;1.65;1.45;;;14.50;51.70;;;;;;4916491;28;44743;-61
2022/11/27 08:32:42;;;;;;;1.45;1.13;;;14.50;51.70;;;;;;4901120;28;45139;-62
2022/11/27 08:35:08;;;;;;;1.30;1.20;;;14.50;51.60;;;;;;4919152;28;46041;-58
2022/11/27 08:37:33;;;;;;;1.83;1.42;;;14.50;51.60;;;;;;4914807;28;45205;-60
2022/11/27 08:39:59;;;;;;;1.50;1.27;;;14.50;51.60;;;;;;4915914;28;45667;-56
2022/11/27 08:42:24;;;;;;;1.30;1.20;;;14.40;51.60;;;;;;4914550;28;45602;-62
2022/11/27 08:44:50;;;;;;;1.35;1.23;;;14.50;51.70;;;;;;4916706;28;45622;-58
2022/11/27 08:47:16;;;;;;;1.70;1.25;;;14.50;51.60;;;;;;4916611;28;45361;-59
2022/11/27 08:49:42;;;;;;;1.33;1.15;;;14.40;51.60;;;;;;4916087;28;45315;-62
2022/11/27 08:52:08;;;;;;;1.50;1.40;;;14.50;51.60;;;;;;4913773;28;45268;-59
2022/11/27 08:54:34;;;;;;;1.83;1.20;;;14.50;51.60;;;;;;4917224;28;45353;-58
2022/11/27 08:56:59;;;;;;;1.10;1.00;;;14.50;51.60;;;;;;4914226;28;45197;-60
2022/11/27 08:59:25;;;;;;;2.10;1.33;;;14.40;52.10;;;;;;4916444;28;45148;-60
2022/11/27 09:01:50;;;;;;;1.10;1.00;;;14.50;51.60;;;;;;4912634;28;45220;-59
2022/11/27 09:04:16;;;;;;;1.92;1.35;;;14.50;51.60;;;;;;4916100;28;45936;-61
2022/11/27 09:06:41;;;;;;;1.40;1.30;;;14.40;51.50;;;;;;4915028;28;45528;-57
2022/11/27 09:09:07;;;;;;;1.50;1.00;;;14.50;51.60;;;;;;4912176;28;44692;-60
2022/11/27 09:11:33;;;;;;;1.10;1.02;;;14.40;51.60;;;;;;4916857;28;45448;-59
2022/11/27 09:13:59;;;;;;;1.23;1.00;;;14.50;51.60;;;;;;4904555;28;45942;-59
2022/11/27 09:16:25;;;;;;;1.70;1.30;;;14.50;51.60;;;;;;4917664;28;45114;-61
2022/11/27 09:18:51;;;;;;;1.73;1.25;;;14.40;51.50;;;;;;4919785;28;45571;-60
2022/11/27 09:21:18;;;;;;;1.30;1.20;;;14.40;51.50;;;;;;4913293;28;45759;-62
2022/11/27 09:23:43;;;;;;;1.70;1.17;;;14.40;51.50;;;;;;4906196;28;46153;-60
2022/11/27 09:26:11;;;;;;;1.92;1.17;;;14.50;51.60;;;;;;4919172;28;45210;-62
2022/11/27 09:28:36;;;;;;;1.83;1.30;;;14.40;51.60;;;;;;4901058;28;45814;-57
2022/11/27 09:31:03;;;;;;;1.38;1.20;;;14.40;51.60;;;;;;4915900;28;45427;-70
2022/11/27 09:33:29;;;;;;;1.70;1.38;;;14.40;51.60;;;;;;4902047;28;45346;-63
2022/11/27 09:35:55;;;;;;;1.25;1.15;;;14.40;51.60;;;;;;4916594;28;44702;-61
2022/11/27 09:38:20;;;;;;;1.48;1.10;;;14.40;51.60;;;;;;4917718;28;46264;-61
2022/11/27 09:40:47;;;;;;;1.92;1.17;;;14.40;51.50;;;;;;4900929;28;45362;-60
2022/11/27 09:43:13;;;;;;;1.33;1.23;;;14.40;52.10;;;;;;4918031;28;47101;-60
2022/11/27 09:45:43;;;;;;;1.58;1.15;;;14.40;51.50;;;;;;4901889;28;44732;-61
2022/11/27 09:48:12;;;;;;;1.33;1.23;;;14.40;51.60;;;;;;4888493;28;46409;-65
2022/11/27 09:50:41;;;;;;;1.63;1.20;;;14.40;51.60;;;;;;4885095;28;45989;-60
2022/11/27 09:53:42;;;;;;;1.38;1.20;;;14.40;51.60;;;;;;4900559;28;46573;-63
2022/11/27 09:56:10;;;;;;;2.00;1.25;;;14.40;51.50;;;;;;4886736;28;45381;-59
2022/11/27 09:58:37;;;;;;;1.33;1.20;;;14.40;51.60;;;;;;4901169;28;45337;-66
2022/11/27 10:01:11;;;;;;;1.80;1.38;;;14.40;51.60;;;;;;4916604;28;44863;-66
2022/11/27 10:03:37;;;;;;;1.20;1.10;;;14.40;51.60;;;;;;4892414;28;46848;-62
2022/11/27 10:06:29;;;;;;;1.80;1.50;;;14.40;51.60;;;;;;4882372;28;45096;-68
2022/11/27 10:09:11;;;;;;;1.40;1.15;;;14.40;51.60;;;;;;4903154;28;45227;-63
2022/11/27 10:12:12;;;;;;;1.25;1.15;;;14.40;51.50;;;;;;4898406;28;44784;-61
2022/11/27 10:15:06;;;;;;;1.70;1.48;;;14.40;51.50;;;;;;4903217;28;47264;-60
2022/11/27 10:17:42;;;;;;;1.58;1.17;;;14.40;51.50;;;;;;4913781;28;45548;-64
2022/11/27 10:20:27;;;;;;;1.52;1.10;;;14.40;51.60;;;;;;4917846;28;44997;-63
2022/11/27 10:23:18;;;;;;;2.00;1.33;;;14.40;51.60;;;;;;4900561;28;44705;-62
2022/11/27 10:25:52;;;;;;;1.75;1.38;;;14.40;51.50;;;;;;4905097;28;46096;-60
2022/11/27 10:28:45;;;;;;;1.30;1.00;;;14.40;51.50;;;;;;4901519;28;45475;-64
2022/11/27 10:31:13;;;;;;;1.77;1.52;;;14.40;51.50;;;;;;4916099;28;45234;-63
2022/11/27 10:33:52;;;;;;;1.35;1.20;;;14.40;51.60;;;;;;4897560;28;45312;-60
2022/11/27 10:36:26;;;;;;;1.25;1.15;;;14.40;51.50;;;;;;4901603;28;47102;-66
2022/11/27 10:38:51;;;;;;;1.77;1.35;;;14.40;51.50;;;;;;4886777;28;44990;-61
2022/11/27 10:41:29;;;;;;;1.17;0.98;;;14.30;52.10;;;;;;4887148;28;44730;-62
2022/11/27 10:43:55;;;;;;;2.17;1.48;;;14.30;51.50;;;;;;4890174;28;45671;-62
2022/11/27 10:46:26;;;;;;;1.65;1.23;;;14.30;51.50;;;;;;4900691;28;44962;-60
2022/11/27 10:48:52;;;;;;;1.90;1.48;;;14.30;51.50;;;;;;4893244;28;45145;-63
2022/11/27 10:51:22;;;;;;;1.55;1.40;;;14.40;51.50;;;;;;4911941;28;45330;-61
2022/11/27 10:53:50;;;;;;;1.85;1.33;;;14.40;51.60;;;;;;4897221;28;45141;-61
2022/11/27 10:56:52;;;;;;;1.38;1.15;;;14.30;51.50;;;;;;4896631;28;46145;-59
2022/11/27 10:59:20;;;;;;;1.70;1.08;;;14.30;51.40;;;;;;4887320;28;45221;-64
2022/11/27 11:01:47;;;;;;;1.40;1.30;;;14.30;51.50;;;;;;4896896;28;45640;-62
2022/11/27 11:04:14;;;;;;;1.35;1.25;;;14.40;51.40;;;;;;4918566;28;45767;-59
2022/11/27 11:06:45;;;;;;;1.33;1.02;;;14.40;51.40;;;;;;4914682;28;46006;-61
2022/11/27 11:09:24;;;;;;;1.67;1.30;;;14.30;51.40;;;;;;4910590;28;45012;-61
2022/11/27 11:11:50;;;;;;;1.85;1.33;;;14.30;51.40;;;;;;4908374;28;45055;-60
2022/11/27 11:14:23;;;;;;;1.25;1.10;;;14.30;51.50;;;;;;4914358;28;45571;-59
2022/11/27 11:16:49;;;;;;;1.77;1.38;;;14.30;51.40;;;;;;4916377;28;45988;-60
2022/11/27 11:19:31;;;;;;;1.40;1.30;;;14.30;51.50;;;;;;4917905;28;45551;-57
2022/11/27 11:21:58;;;;;;;1.10;1.00;;;14.30;51.40;;;;;;4908575;28;45343;-63
2022/11/27 11:24:27;;;;;;;1.10;1.00;;;14.30;51.40;;;;;;4884402;28;46153;-61
2022/11/27 11:26:55;;;;;;;1.33;1.10;;;14.30;51.50;;;;;;4898804;28;46193;-61
2022/11/27 11:29:30;;;;;;;1.42;1.20;;;14.30;51.50;;;;;;4897687;28;46002;-61
2022/11/27 11:31:56;;;;;;;1.05;0.95;;;14.30;51.50;;;;;;4902009;28;45565;-61
2022/11/27 11:34:22;;;;;;;1.42;1.15;;;14.30;51.50;;;;;;4912991;28;45970;-62
2022/11/27 11:37:02;;;;;;;1.90;1.33;;;14.30;51.50;;;;;;4913609;28;47030;-62
2022/11/27 11:39:43;;;;;;;1.83;1.10;;;14.30;51.40;;;;;;4898620;28;44640;-63
2022/11/27 11:42:10;;;;;;;1.02;0.93;;;14.30;51.30;;;;;;4874378;28;45367;-64
2022/11/27 11:44:37;;;;;;;1.55;1.10;;;14.30;51.40;;;;;;4910597;28;45381;-62
2022/11/27 11:47:02;;;;;;;0.95;0.90;;;14.30;51.40;;;;;;4915806;28;46195;-66
2022/11/27 11:49:29;;;;;;;1.30;1.20;;;14.30;51.40;;;;;;4915717;28;45261;-62
2022/11/27 11:52:00;;;;;;;1.80;1.40;;;14.30;51.40;;;;;;4908217;28;45736;-64
2022/11/27 11:54:36;;;;;;;1.30;1.10;;;14.30;51.40;;;;;;4914111;28;44849;-61
2022/11/27 11:57:03;;;;;;;1.52;1.38;;;14.30;51.40;;;;;;4914139;28;46123;-64
2022/11/27 11:59:42;;;;;;;1.25;1.13;;;14.30;51.40;;;;;;4896658;28;45202;-68
2022/11/27 12:02:19;;;;;;;1.13;1.02;;;14.30;51.30;;;;;;4878753;28;45286;-67
2022/11/27 12:05:13;;;;;;;1.38;1.27;;;14.30;51.30;;;;;;4879363;28;45704;-62
2022/11/27 12:07:39;;;;;;;;;;;14.30;51.40;;;;;;4900334;28;46024;-60
2022/11/27 12:10:10;;;;;;;1.63;1.45;;;14.20;51.40;;;;;;4896365;28;45130;-61
2022/11/27 12:13:00;;;;;;;1.60;1.20;;;14.20;51.40;;;;;;4895971;28;45047;-64
2022/11/27 12:15:49;;;;;;;1.23;1.10;;;14.20;51.50;;;;;;4895358;28;45637;-61
2022/11/27 12:18:19;;;;;;;1.20;1.10;;;14.20;51.40;;;;;;4893711;28;46141;-62
2022/11/27 12:21:24;;;;;;;1.20;1.10;;;14.20;51.40;;;;;;4873489;29;45584;-60
2022/11/27 12:24:09;;;;;;;1.65;1.40;;;14.30;51.40;;;;;;4873551;28;45510;-60
2022/11/27 12:26:52;;;;;;;1.13;1.00;;;14.30;51.40;;;;;;4877586;29;45540;-59
2022/11/27 12:29:36;;;;;;;1.95;1.30;;;14.30;51.30;;;;;;4881895;28;46123;-57
2022/11/27 12:32:10;;;;;;;1.20;1.10;;;14.30;51.30;;;;;;4891719;28;45264;-61
2022/11/27 12:34:57;;;;;;;1.08;0.82;;;14.30;51.30;;;;;;4892946;28;45542;-56
2022/11/27 12:37:45;;;;;;;1.27;1.17;;;14.20;51.40;;;;;;4890759;28;45364;-61
2022/11/27 12:40:25;;;;;;;1.40;1.02;;;14.20;51.30;;;;;;4895765;28;45450;-57
2022/11/27 12:43:10;;;;;;;1.70;1.35;;;14.20;51.40;;;;;;4898766;28;45615;-59
2022/11/27 12:45:48;;;;;;;1.52;1.15;;;14.20;51.40;;;;;;4874780;28;45164;-58
2022/11/27 12:48:41;;;;;;;1.83;1.30;;;14.20;51.30;;;;;;4878206;28;46311;-63
2022/11/27 12:51:37;;;;;;;1.35;1.20;;;14.30;51.30;;;;;;4894996;28;47051;-61
2022/11/27 12:54:10;;;;;;;1.73;1.40;;;14.30;51.30;;;;;;4861960;28;45248;-63
2022/11/27 12:56:44;;;;;;;1.33;1.10;;;14.20;51.30;;;;;;4892982;28;45450;-61
2022/11/27 12:59:32;;;;;;;;;;;14.20;51.20;;;;;;4890211;28;45861;-60
2022/11/27 13:02:22;;;;;;;1.20;1.10;;;14.20;51.20;;;;;;4900588;28;46195;-61
2022/11/27 13:05:27;;;;;;;1.15;0.93;;;14.20;51.40;;;;;;4886656;28;45353;-64
2022/11/27 13:07:52;;;;;;;2.45;1.38;;;14.20;51.30;;;;;;4913213;28;45761;-62
2022/11/27 13:10:21;;;;;;;1.65;1.30;;;14.20;51.40;;;;;;4912757;28;45156;-61
2022/11/27 13:13:05;;;;;;;1.15;0.95;;;14.20;51.30;;;;;;4908821;28;46471;-63
2022/11/27 13:15:49;;;;;;;1.20;1.10;;;14.20;51.20;;;;;;4908783;28;44939;-63
2022/11/27 13:18:19;;;;;;;1.38;1.13;;;14.20;51.20;;;;;;4893134;28;45551;-62
2022/11/27 13:20:44;;;;;;;1.60;1.08;;;14.20;51.30;;;;;;4882955;28;45566;-61
2022/11/27 13:23:10;;;;;;;1.20;1.00;;;14.20;51.30;;;;;;4874593;28;46058;-64
2022/11/27 13:25:41;;;;;;;0.98;0.88;;;14.20;51.30;;;;;;4912849;28;45442;-64
2022/11/27 13:28:06;;;;;;;1.60;1.25;;;14.20;51.40;;;;;;4880922;28;45409;-59
2022/11/27 13:30:33;;;;;;;1.23;1.10;;;14.20;51.40;;;;;;4908719;28;45779;-63
2022/11/27 13:33:00;;;;;;;1.33;1.20;;;14.20;51.30;;;;;;4876346;28;46966;-63
2022/11/27 13:35:30;;;;;;;1.30;1.20;;;14.20;51.20;;;;;;4882378;28;45098;-56
2022/11/27 13:38:16;;;;;;;1.35;1.05;;;14.20;51.20;;;;;;4910849;28;44675;-62
2022/11/27 13:40:46;;;;;;;1.98;1.33;;;14.20;51.20;;;;;;4902483;28;45573;-60
2022/11/27 13:43:38;;;;;;;1.35;0.93;;;14.20;51.40;;;;;;4896347;28;46878;-63
2022/11/27 13:46:17;;;;;;;1.48;1.30;;;14.20;51.40;;;;;;4910657;28;44646;-62
2022/11/27 13:48:54;;;;;;;1.60;1.25;;;14.20;51.40;;;;;;4893211;28;45361;-66
2022/11/27 13:51:33;;;;;;;1.85;1.20;;;14.20;51.40;;;;;;4888266;28;45113;-62
2022/11/27 13:54:25;;;;;;;0.88;0.88;;;14.10;51.30;;;;;;4895914;28;45922;-58
2022/11/27 13:56:51;;;;;;;1.50;1.17;;;14.20;51.40;;;;;;4893226;28;44683;-60
2022/11/27 13:59:20;;;;;;;1.85;1.40;;;14.20;51.40;;;;;;4895718;28;44751;-58
2022/11/27 14:01:56;;;;;;;1.25;1.10;;;14.20;51.40;;;;;;4875339;28;1070023;-63
2022/11/27 14:04:22;;;;;;;1.77;1.30;;;14.20;51.30;;;;;;4915173;28;46384;-63
2022/11/27 14:07:12;;;;;;;0.77;0.77;;;14.20;51.30;;;;;;4914779;28;45340;-60
2022/11/27 14:09:50;;;;;;;1.25;1.15;;;14.20;51.30;;;;;;4901132;28;45322;-63
2022/11/27 14:12:26;;;;;;;1.27;1.10;;;14.20;51.40;;;;;;4897602;28;45195;-63
2022/11/27 14:15:15;;;;;;;1.92;1.30;;;14.20;51.30;;;;;;4901164;28;46086;-60
2022/11/27 14:17:47;;;;;;;1.35;1.20;;;14.10;51.20;;;;;;4903571;28;45401;-63
2022/11/27 14:20:16;;;;;;;1.10;1.00;;;14.20;51.30;;;;;;4902039;28;45266;-61
2022/11/27 14:22:51;;;;;;;1.10;0.90;;;14.20;51.40;;;;;;4915551;28;45097;-62
2022/11/27 14:25:36;;;;;;;1.35;1.20;;;14.20;51.40;;;;;;4916490;28;46333;-61
2022/11/27 14:28:11;;;;;;;1.33;1.10;;;14.10;51.30;;;;;;4913993;28;45203;-69
2022/11/27 14:30:47;;;;;;;1.25;1.08;;;14.20;51.30;;;;;;4898094;28;44678;-63
2022/11/27 14:33:32;;;;;;;1.25;1.13;;;14.20;51.20;;;;;;4916568;28;44913;-60
2022/11/27 14:36:07;;;;;;;1.40;1.20;;;14.20;51.20;;;;;;4916476;28;46840;-62
2022/11/27 14:38:33;;;;;;;1.27;1.17;;;14.20;51.20;;;;;;4916864;28;45510;-60
2022/11/27 14:41:18;;;;;;;1.48;1.30;;;14.20;51.20;;;;;;4911156;28;45261;-59
2022/11/27 14:43:44;;;;;;;1.38;1.08;;;14.20;51.20;;;;;;4898918;28;45354;-60
2022/11/27 14:46:19;;;;;;;1.02;0.93;;;14.20;51.20;;;;;;4913318;28;46262;-61
2022/11/27 14:48:49;;;;;;;1.55;1.17;;;14.20;51.20;;;;;;4920448;28;45237;-61
2022/11/27 14:51:16;;;;;;;1.67;1.25;;;14.20;51.20;;;;;;4919742;28;45055;-61
2022/11/27 14:53:43;;;;;;;1.48;1.08;;;14.10;51.20;;;;;;4902239;28;45962;-60
2022/11/27 14:56:09;;;;;;;1.15;1.05;;;14.20;51.30;;;;;;4908992;28;45927;-65
2022/11/27 14:58:34;;;;;;;1.23;1.08;;;14.20;51.20;;;;;;4883146;28;45584;-63
2022/11/27 15:01:05;;;;;;;1.50;1.10;;;14.20;51.20;;;;;;4901467;28;45561;-61
2022/11/27 15:03:30;;;;;;;1.10;0.90;;;14.10;51.20;;;;;;4915659;28;45294;-59
2022/11/27 15:06:00;;;;;;;1.45;1.30;;;14.20;51.20;;;;;;4919786;28;46878;-61
2022/11/27 15:08:27;;;;;;;1.42;1.20;;;14.20;51.20;;;;;;4920112;28;45149;-57
2022/11/27 15:10:54;;;;;;;0.93;0.88;;;14.20;51.20;;;;;;4891888;28;46138;-61
2022/11/27 15:13:28;;;;;;;1.25;1.15;;;14.10;51.20;;;;;;4919278;28;45077;-62
2022/11/27 15:16:05;;;;;;;1.60;1.20;;;14.10;51.20;;;;;;4917193;28;46396;-59
2022/11/27 15:18:32;;;;;;;1.65;1.27;;;14.20;51.30;;;;;;4902217;28;44815;-56
2022/11/27 15:20:58;;;;;;;1.45;1.20;;;14.20;51.20;;;;;;4903444;28;45229;-60
2022/11/27 15:23:28;;;;;;;1.10;1.00;;;14.20;51.30;;;;;;4885141;28;45453;-66
2022/11/27 15:26:03;;;;;;;1.38;1.10;;;14.20;51.20;;;;;;4902318;28;45213;-58
2022/11/27 15:28:36;;;;;;;1.35;1.10;;;14.10;51.10;;;;;;4915513;28;45226;-60
2022/11/27 15:31:36;;;;;;;1.20;1.10;;;14.20;51.20;;;;;;4914365;28;45286;-63
2022/11/27 15:34:20;;;;;;;1.40;1.15;;;14.10;51.10;;;;;;4915616;28;45371;-63
2022/11/27 15:37:04;;;;;;;1.20;1.10;;;14.20;51.20;;;;;;4915999;28;45337;-62
2022/11/27 15:39:36;;;;;;;1.10;1.00;;;14.20;51.20;;;;;;4917787;28;45112;-59
2022/11/27 15:42:03;;;;;;;1.25;1.15;;;14.20;51.20;;;;;;4916837;28;45749;-61
2022/11/27 15:44:30;;;;;;;1.38;1.17;;;14.20;51.20;;;;;;4913487;28;44700;-65
2022/11/27 15:46:57;;;;;;;1.90;1.27;;;14.10;51.10;;;;;;4916545;28;45188;-59
2022/11/27 15:49:22;;;;;;;1.25;1.13;;;14.10;51.10;;;;;;4902403;28;45383;-57
2022/11/27 15:51:48;;;;;;;1.83;1.23;;;14.20;51.20;;;;;;4917597;28;45153;-56
2022/11/27 15:54:13;;;;;;;1.10;1.00;;;14.20;51.20;;;;;;4920025;28;46096;-60
2022/11/27 15:56:39;;;;;;;1.27;1.10;;;14.20;51.20;;;;;;4915106;28;46017;-61
2022/11/27 15:59:05;;;;;;;1.30;1.20;;;14.10;51.10;;;;;;4916103;28;45293;-62
2022/11/27 16:01:31;;;;;;;1.42;1.20;;;14.10;51.10;;;;;;4916320;28;44712;-62
2022/11/27 16:03:57;;;;;;;1.58;1.20;;;14.10;51.10;;;;;;4917516;28;45202;-62
2022/11/27 16:06:23;;;;;;;1.50;1.30;;;14.10;51.10;;;;;;4912044;28;46972;-62
2022/11/27 16:08:56;;;;;;;1.10;1.00;;;14.10;51.10;;;;;;4917715;28;45204;-62
2022/11/27 16:11:22;;;;;;;1.30;1.20;;;14.10;51.10;;;;;;4917374;28;45053;-62
2022/11/27 16:13:47;;;;;;;2.63;1.20;;;14.10;51.10;;;;;;4910584;28;47969;-66
2022/11/27 16:16:13;;;;;;;0.98;0.93;;;14.10;51.20;;;;;;4911796;28;45617;-61
2022/11/27 16:18:38;;;;;;;1.45;1.20;;;14.10;51.20;;;;;;4909573;28;45877;-61
2022/11/27 16:21:08;;;;;;;1.45;1.20;;;14.10;51.20;;;;;;4913297;28;45328;-62
2022/11/27 16:23:33;;;;;;;1.30;1.20;;;14.10;51.20;;;;;;4916161;28;45469;-66
2022/11/27 16:25:59;;;;;;;1.40;1.13;;;14.10;51.10;;;;;;4916686;28;45528;-63
2022/11/27 16:28:25;;;;;;;1.27;0.90;;;14.10;51.10;;;;;;4917287;28;44693;-61
2022/11/27 16:30:52;;;;;;;1.60;1.10;;;14.10;51.10;;;;;;4911402;28;45409;-62
2022/11/27 16:33:20;;;;;;;1.15;1.00;;;14.10;51.10;;;;;;4913156;28;45329;-58
2022/11/27 16:35:46;;;;;;;1.55;1.10;;;14.10;51.20;;;;;;4910365;28;45467;-59
2022/11/27 16:38:11;;;;;;;1.55;1.10;;;14.10;51.10;;;;;;4917079;28;45098;-59
2022/11/27 16:40:37;;;;;;;1.23;1.05;;;14.00;51.10;;;;;;4899476;28;45407;-62
2022/11/27 16:43:03;;;;;;;1.58;1.30;;;14.00;51.10;;;;;;4913304;28;45482;-66
2022/11/27 16:45:28;;;;;;;1.00;0.90;;;14.10;51.10;;;;;;4912063;28;45604;-61
2022/11/27 16:47:54;;;;;;;1.48;1.20;;;14.10;51.10;;;;;;4900105;28;45064;-59
2022/11/27 16:50:20;;;;;;;1.67;1.33;;;14.10;51.10;;;;;;4898243;28;44825;-66
2022/11/27 16:52:45;;;;;;;1.27;1.08;;;14.10;51.10;;;;;;4915154;28;45803;-58
2022/11/27 16:55:11;;;;;;;1.20;1.10;;;14.10;51.10;;;;;;4917917;28;46251;-66
2022/11/27 16:57:36;;;;;;;1.23;1.13;;;14.00;51.10;;;;;;4914868;28;45289;-60
2022/11/27 17:00:02;;;;;;;1.35;1.20;;;14.10;51.10;;;;;;4916260;28;45387;-63
2022/11/27 17:02:28;;;;;;;1.02;0.90;;;14.00;51.00;;;;;;4909959;28;45219;-62
2022/11/27 17:04:54;;;;;;;1.40;1.20;;;14.00;51.00;;;;;;4917251;28;46732;-61
2022/11/27 17:07:19;;;;;;;1.48;1.23;;;14.10;51.00;;;;;;4899533;28;45223;-63
2022/11/27 17:09:45;;;;;;;1.50;1.00;;;14.00;51.00;;;;;;4917258;28;45272;-64
2022/11/27 17:12:11;;;;;;;1.50;1.20;;;14.00;51.00;;;;;;4912963;28;44858;-62
2022/11/27 17:14:37;;;;;;;1.25;1.05;;;14.00;51.10;;;;;;4910324;28;46169;-61